Makawao, HI

10:42 PM HST on November 27, 2014 (GMT -1000)
Up Country Maui | Change Station
CLOSE
Current Station
Personal Weather Station
Location: Makawao, HI
Elevation: 1562 ft
Nearby Weather Stations
Active Advisory: High Surf Advisory

Elev 1562 ft 20.86 °N, 156.32 °W | Updated 2 minutes ago

Overcast
Overcast
65.5 °F
Feels Like 65.5 °F
N
9.0
Wind Variable Wind from ENE
Gusts 20.0 mph

Today
High -- | Low -- °F
--% Chance of Precip.
Yesterday
High -- | Low -- °F
Precip. -- in
6:43 AM 5:42 PM
Waxing Crescent, 38% visible
Pressure 30.10 in
Visibility 10.0 miles
Clouds Mostly Cloudy 3600 ft
Overcast 4200 ft
Dew Point 62 °F
Humidity 87%
Rainfall 0.18 in
Snow Depth Not available.
UV 0.0 out of 12
Pollen Not available.
Air Quality Not available.
Flu Activity Not available.
METAR PHOG 280754Z 05015KT 10SM BKN036 OVC042 24/17 A3009 RMK AO2 SLP193 T02440167 $

More Conditions Fewer Conditions

Pressure 30.10 in
Visibility 10.0 miles
Clouds Mostly Cloudy 3600 ft
Overcast 4200 ft
Dew Point 62 °F
Humidity 87%
Rainfall 0.18 in
Snow Depth Not available.
UV 0.0 out of 12
Pollen Not available.
Air Quality Not available.
Flu Activity Not available.
METAR PHOG 280754Z 05015KT 10SM BKN036 OVC042 24/17 A3009 RMK AO2 SLP193 T02440167 $

More Conditions Fewer Conditions

10-Day Weather Forecast

Almanac

Astronomy

Nov. 27, 2014 Rise Set
Actual Time
Civil Twilight
Nautical Twilight
Astronomical Twilight
Moon
Length of Visible Light
Length of Day
Tomorrow will be .
, % of the Moon is Illuminated

Today's Extremes

State Highs State Lows

Community

WunderPhotos

Upload Photos

1,774,190 photos uploaded!

WunderBlogs® & News

Nearby

Air Quality

  Air Quality AQ Index Pollutant
Not available.

Snow Depth

Station Depth Elevation

Earthquake Activity

City Distance Mag. Time & Date
Minimum magnitude displayed is 2.5.

Coastal Water Temperatures

Place Temperature

Nearby Weather Stations